This is the latest recevied weather packets stored in our database for station/object OH1KK. If no packets are shown the sender has not sent any weather packets the latest 10 day(s).
| Time | Temp. | Humidity | Pressure | Rain* | Wind** | Luminosity | Snow |
|---|---|---|---|---|---|---|---|
| 1777576750 | 8.89° C | 72% | 1011.8 hPa | 0 mm | - | - | - |
| 1777575896 | 10° C | 69% | 1011.8 hPa | 0 mm | - | - | - |
| 1777574981 | 10.56° C | 66% | 1011.7 hPa | 0 mm | - | - | - |
| 1777574065 | 11.11° C | 64% | 1011.7 hPa | 0 mm | - | - | - |
| 1777573150 | 11.67° C | 61% | 1011.7 hPa | 0 mm | - | - | - |
| 1777572296 | 12.22° C | 59% | 1011.6 hPa | 0 mm | - | - | - |
| 1777571381 | 13.33° C | 57% | 1011.7 hPa | 0 mm | - | - | - |
| 1777570466 | 13.33° C | 56% | 1011.5 hPa | 0 mm | - | - | - |
| 1777568697 | 13.89° C | 55% | 1011.4 hPa | 0 mm | - | - | - |
| 1777567781 | 13.89° C | 55% | 1011.5 hPa | 0 mm | - | - | - |
| 1777565951 | 13.89° C | 55% | 1011.5 hPa | 0 mm | - | - | - |
| 1777562351 | 13.33° C | 56% | 1011.9 hPa | 0 mm | - | - | - |
| 1777561497 | 13.33° C | 57% | 1011.7 hPa | 0 mm | - | - | - |
| 1777560582 | 13.33° C | 57% | 1011.8 hPa | 0 mm | - | - | - |
| 1777559667 | 13.33° C | 57% | 1011.8 hPa | 0 mm | - | - | - |
| 1777558752 | 13.89° C | 55% | 1011.8 hPa | 0 mm | - | - | - |
| 1777557897 | 13.33° C | 57% | 1011.6 hPa | 0 mm | - | - | - |
| 1777556983 | 13.33° C | 57% | 1011.9 hPa | 0 mm | - | - | - |
| 1777556067 | 13.33° C | 57% | 1011.7 hPa | 0 mm | - | - | - |
| 1777555152 | 13.33° C | 58% | 1011.8 hPa | 0 mm | - | - | - |
| 1777554298 | 12.78° C | 59% | 1011.7 hPa | 0 mm | - | - | - |
| 1777553382 | 12.78° C | 59% | 1011.8 hPa | 0 mm | - | - | - |
| 1777552467 | 12.78° C | 59% | 1011.7 hPa | 0 mm | - | - | - |
| 1777551552 | 12.22° C | 60% | 1011.8 hPa | 0 mm | - | - | - |
| 1777550698 | 12.22° C | 60% | 1011.9 hPa | 0 mm | - | - | - |
* Rain latest hour (hover to see other rain measurements)
** Current wind speed in m/s (hover to see current wind gust speed)